Ashfordby, United Kingdom
Current Conditions -  °F | °C
As of 4:50 PM on Friday 21 Nov 2014 (Local Time) from EGNX Reporting Station
Light Rain Light Rain  
Wind Chill:   Ceiling: 800
Heat Index:   Visibility: 2.5mi
Dew Point:   Wind: 12mph
Humidity: 93%   Direction: 120°ESE
Pressure: 29.97"   Gusts: NA
Location:  52.75°N, 0.95°W
Report Text: EGNX 211650Z 12010KT 4000 -RA BKN008 BKN013 08/07 Q1015
Loading
Personal Weather Stations






























Interactive Weather Map New forecast layout! Learn more

10-Day Weather Forecast

Advertisements
Track Severe Weather on mobile